Time,TemperatureF,DewpointF,PressureIn,WindDirection,WindDirectionDegrees,WindSpeedMPH,WindSpeedGustMPH,Humidity,HourlyPrecipIn,Conditions,Clouds,dailyrainin,SoftwareType,DateUTC
2013-10-17 00:11:00,38.0,28.0,-100.00,NE,42,0.0,1.0,66,0.00,,,-99.99,,2013-10-17 07:11:00,
2013-10-17 00:22:00,37.0,27.0,-100.00,East,92,0.0,4.0,67,0.00,,,-99.99,,2013-10-17 07:22:00,
2013-10-17 00:31:00,37.0,27.0,-100.00,East,92,0.0,4.0,67,0.00,,,-99.99,,2013-10-17 07:31:00,
2013-10-17 01:11:00,37.0,28.0,-100.00,North,-999,0.0,0.0,71,0.00,,,-99.99,,2013-10-17 08:11:00,
2013-10-17 01:21:00,36.0,28.0,-100.00,NE,37,2.0,4.0,73,0.00,,,-99.99,,2013-10-17 08:21:00,
2013-10-17 01:42:00,36.0,28.0,-100.00,NE,35,0.0,2.0,73,0.00,,,-99.99,,2013-10-17 08:42:00,
2013-10-17 02:11:00,35.0,28.0,-100.00,NE,47,0.0,3.0,75,0.00,,,-99.99,,2013-10-17 09:11:00,
2013-10-17 02:21:00,35.0,28.0,-100.00,NE,47,0.0,3.0,75,0.00,,,-99.99,,2013-10-17 09:21:00,
2013-10-17 02:42:00,35.0,28.0,-100.00,NNE,32,0.0,3.0,75,0.00,,,-99.99,,2013-10-17 09:42:00,
2013-10-17 02:53:00,35.0,28.0,-100.00,North,-999,0.0,0.0,76,0.00,,,-99.99,,2013-10-17 09:53:00,
2013-10-17 03:03:00,35.0,28.0,-100.00,North,-999,0.0,0.0,76,0.00,,,-99.99,,2013-10-17 10:03:00,
2013-10-17 03:42:00,34.0,28.0,-100.00,North,-999,0.0,0.0,79,0.00,,,-99.99,,2013-10-17 10:42:00,
2013-10-17 03:53:00,34.0,28.0,-100.00,North,-999,0.0,0.0,79,0.00,,,-99.99,,2013-10-17 10:53:00,
2013-10-17 04:02:00,34.0,28.0,-100.00,North,-999,0.0,0.0,79,0.00,,,-99.99,,2013-10-17 11:02:00,
2013-10-17 04:11:00,34.0,28.0,-100.00,North,-999,0.0,0.0,79,0.00,,,-99.99,,2013-10-17 11:11:00,
2013-10-17 04:42:00,33.0,27.0,-100.00,North,-999,0.0,0.0,79,-99.99,,,-99.99,,2013-10-17 11:42:00,
2013-10-17 04:52:00,33.0,28.0,-100.00,North,-999,0.0,0.0,80,-99.99,,,-99.99,,2013-10-17 11:52:00,
2013-10-17 05:12:00,33.0,28.0,-100.00,NE,48,0.0,3.0,81,0.00,,,-99.99,,2013-10-17 12:12:00,
2013-10-17 05:22:00,33.0,28.0,-100.00,NE,48,0.0,3.0,81,0.00,,,-99.99,,2013-10-17 12:22:00,
2013-10-17 05:42:00,33.0,28.0,-100.00,North,-999,0.0,0.0,82,0.00,,,-99.99,,2013-10-17 12:42:00,
2013-10-17 05:52:00,33.0,28.0,-100.00,North,-999,0.0,0.0,82,0.00,,,-99.99,,2013-10-17 12:52:00,
2013-10-17 06:11:00,32.0,27.0,-100.00,North,-999,0.0,0.0,82,-99.99,,,-99.99,,2013-10-17 13:11:00,
2013-10-17 06:21:00,32.0,28.0,-100.00,NE,47,1.0,3.0,85,-99.99,,,-99.99,,2013-10-17 13:21:00,
2013-10-17 06:42:00,32.0,28.0,-100.00,NNE,31,0.0,3.0,86,-99.99,,,-99.99,,2013-10-17 13:42:00,
2013-10-17 06:52:00,32.0,29.0,-100.00,NE,45,0.0,2.0,87,0.00,,,-99.99,,2013-10-17 13:52:00,
2013-10-17 07:02:00,32.0,29.0,-100.00,NE,45,0.0,2.0,87,0.00,,,-99.99,,2013-10-17 14:02:00,
2013-10-17 07:11:00,32.0,29.0,-100.00,NE,45,0.0,2.0,87,0.00,,,-99.99,,2013-10-17 14:11:00,
2013-10-17 07:52:00,32.0,29.0,-100.00,NE,44,0.0,3.0,89,0.00,,,-99.99,,2013-10-17 14:52:00,
2013-10-17 08:02:00,32.0,29.0,-100.00,NE,44,0.0,3.0,89,0.00,,,-99.99,,2013-10-17 15:02:00,
2013-10-17 08:22:00,32.0,29.0,-100.00,NE,47,0.0,3.0,89,0.00,,,-99.99,,2013-10-17 15:22:00,
2013-10-17 08:33:00,33.0,30.0,-100.00,North,-999,0.0,0.0,88,0.00,,,-99.99,,2013-10-17 15:33:00,
2013-10-17 08:43:00,33.0,30.0,-100.00,North,-999,0.0,0.0,88,0.00,,,-99.99,,2013-10-17 15:43:00,
2013-10-17 08:53:00,34.0,30.0,-100.00,North,-999,0.0,0.0,85,0.00,,,-99.99,,2013-10-17 15:53:00,
2013-10-17 09:03:00,34.0,30.0,-100.00,North,-999,0.0,0.0,85,0.00,,,-99.99,,2013-10-17 16:03:00,
2013-10-17 09:23:00,38.0,31.0,-100.00,North,-999,0.0,0.0,75,-99.99,,,-99.99,,2013-10-17 16:23:00,
2013-10-17 10:21:00,47.0,33.0,-100.00,SSE,165,0.0,3.0,58,-99.99,,,-99.99,,2013-10-17 17:21:00,
2013-10-17 10:42:00,49.0,34.0,-100.00,SSW,198,0.0,3.0,55,-99.99,,,-99.99,,2013-10-17 17:42:00,
2013-10-17 11:11:00,50.0,33.0,-100.00,SSE,168,0.0,3.0,52,-99.99,,,-99.99,,2013-10-17 18:11:00,
2013-10-17 11:21:00,50.0,33.0,-100.00,WSW,240,1.0,5.0,51,-99.99,,,-99.99,,2013-10-17 18:21:00,
2013-10-17 11:32:00,50.0,33.0,-100.00,WSW,240,1.0,5.0,51,-99.99,,,-99.99,,2013-10-17 18:32:00,
2013-10-17 12:11:00,53.0,33.0,-100.00,SW,230,2.0,5.0,47,-99.99,,,-99.99,,2013-10-17 19:11:00,
2013-10-17 12:21:00,53.0,32.0,-100.00,WSW,239,3.0,6.0,45,-99.99,,,-99.99,,2013-10-17 19:21:00,
2013-10-17 12:42:00,55.0,27.0,-100.00,WSW,244,2.0,6.0,34,-99.99,,,-99.99,,2013-10-17 19:42:00,
2013-10-17 13:11:00,58.0,23.0,-100.00,SSE,157,1.0,5.0,26,-99.99,,,-99.99,,2013-10-17 20:11:00,
2013-10-17 14:22:00,60.0,14.0,-100.00,WSW,246,4.0,8.0,16,0.00,,,-99.99,,2013-10-17 21:22:00,
2013-10-17 14:34:00,60.0,14.0,-100.00,SSW,210,3.0,8.0,16,0.00,,,-99.99,,2013-10-17 21:34:00,
2013-10-17 14:44:00,60.0,14.0,-100.00,SSW,210,3.0,8.0,16,0.00,,,-99.99,,2013-10-17 21:44:00,
2013-10-17 14:54:00,61.0,13.0,-100.00,SW,227,3.0,8.0,15,0.00,,,-99.99,,2013-10-17 21:54:00,
2013-10-17 15:04:00,61.0,13.0,-100.00,SW,227,3.0,8.0,15,0.00,,,-99.99,,2013-10-17 22:04:00,
2013-10-17 15:43:00,62.0,12.0,-100.00,West,265,4.0,10.0,14,-99.99,,,-99.99,,2013-10-17 22:43:00,
2013-10-17 15:53:00,62.0,14.0,-100.00,WSW,239,4.0,9.0,15,-99.99,,,-99.99,,2013-10-17 22:53:00,
2013-10-17 16:13:00,62.0,19.0,-100.00,NW,306,3.0,11.0,19,-99.99,,,-99.99,,2013-10-17 23:13:00,
2013-10-17 16:22:00,62.0,19.0,-100.00,NW,306,3.0,11.0,19,-99.99,,,-99.99,,2013-10-17 23:22:00,
2013-10-17 16:43:00,61.0,17.0,-100.00,NE,42,4.0,12.0,18,-99.99,,,-99.99,,2013-10-17 23:43:00,
2013-10-17 17:12:00,61.0,17.0,-100.00,NE,38,5.0,14.0,18,-99.99,,,-99.99,,2013-10-18 00:12:00,
2013-10-17 17:22:00,61.0,16.0,-100.00,ENE,64,4.0,12.0,17,-99.99,,,-99.99,,2013-10-18 00:22:00,
2013-10-17 17:42:00,60.0,15.0,-100.00,NE,40,4.0,15.0,17,-99.99,,,-99.99,,2013-10-18 00:42:00,
2013-10-17 18:12:00,59.0,16.0,-100.00,NE,35,3.0,11.0,18,-99.99,,,-99.99,,2013-10-18 01:12:00,
2013-10-17 18:21:00,58.0,16.0,-100.00,NE,44,2.0,10.0,19,0.00,,,-99.99,,2013-10-18 01:21:00,
2013-10-17 18:32:00,58.0,16.0,-100.00,NE,44,2.0,10.0,19,0.00,,,-99.99,,2013-10-18 01:32:00,
2013-10-17 18:42:00,58.0,16.0,-100.00,NNE,31,2.0,8.0,19,0.00,,,-99.99,,2013-10-18 01:42:00,
2013-10-17 18:52:00,58.0,16.0,-100.00,NNE,18,2.0,9.0,19,0.00,,,-99.99,,2013-10-18 01:52:00,
2013-10-17 19:11:00,55.0,17.0,-100.00,NNE,18,2.0,9.0,22,-99.99,,,-99.99,,2013-10-18 02:11:00,
2013-10-17 19:22:00,54.0,16.0,-100.00,NE,41,2.0,11.0,22,-99.99,,,-99.99,,2013-10-18 02:22:00,
2013-10-17 19:42:00,53.0,15.0,-100.00,NNE,21,2.0,7.0,22,-99.99,,,-99.99,,2013-10-18 02:42:00,
2013-10-17 19:52:00,53.0,15.0,-100.00,NNE,21,2.0,7.0,22,-99.99,,,-99.99,,2013-10-18 02:52:00,
2013-10-17 20:11:00,53.0,14.0,-100.00,ENE,68,2.0,9.0,21,-99.99,,,-99.99,,2013-10-18 03:11:00,
2013-10-17 20:22:00,53.0,14.0,-100.00,ENE,68,2.0,9.0,21,-99.99,,,-99.99,,2013-10-18 03:22:00,
2013-10-17 20:44:00,51.0,14.0,-100.00,NE,51,1.0,8.0,22,0.00,,,-99.99,,2013-10-18 03:44:00,
2013-10-17 20:54:00,51.0,14.0,-100.00,NE,51,1.0,8.0,22,0.00,,,-99.99,,2013-10-18 03:54:00,
2013-10-17 21:53:00,50.0,16.0,-100.00,North,3,5.0,10.0,25,-99.99,,,-99.99,,2013-10-18 04:53:00,
2013-10-17 22:03:00,50.0,16.0,-100.00,North,3,5.0,10.0,25,-99.99,,,-99.99,,2013-10-18 05:03:00,
2013-10-17 22:22:00,49.0,16.0,-100.00,North,354,3.0,9.0,26,0.00,,,-99.99,,2013-10-18 05:22:00,
2013-10-17 22:52:00,50.0,16.0,-100.00,NE,56,0.0,3.0,25,0.00,,,-99.99,,2013-10-18 05:52:00,
2013-10-17 23:02:00,50.0,16.0,-100.00,NE,56,0.0,3.0,25,0.00,,,-99.99,,2013-10-18 06:02:00,
2013-10-17 23:21:00,46.0,16.0,-100.00,North,11,1.0,5.0,30,0.00,,,-99.99,,2013-10-18 06:21:00,
2013-10-17 23:33:00,46.0,16.0,-100.00,North,1,4.0,9.0,30,0.00,,,-99.99,,2013-10-18 06:33:00,